sensor_id;sensor_type;location;lat;lon;timestamp;temperature;humidity
12833;DHT22;6483;51.310;4.462;2023-04-01T00:01:06;9.90;99.90
12833;DHT22;6483;51.310;4.462;2023-04-01T00:03:33;9.90;99.90
12833;DHT22;6483;51.310;4.462;2023-04-01T00:06:02;9.90;99.90
12833;DHT22;6483;51.310;4.462;2023-04-01T00:08:33;9.80;99.90
12833;DHT22;6483;51.310;4.462;2023-04-01T00:10:59;9.80;99.90
12833;DHT22;6483;51.310;4.462;2023-04-01T00:13:25;9.80;99.90
12833;DHT22;6483;51.310;4.462;2023-04-01T00:15:52;9.80;99.90
12833;DHT22;6483;51.310;4.462;2023-04-01T00:18:22;9.80;99.90
12833;DHT22;6483;51.310;4.462;2023-04-01T00:20:50;9.80;99.90
12833;DHT22;6483;51.310;4.462;2023-04-01T00:23:25;9.80;99.90
12833;DHT22;6483;51.310;4.462;2023-04-01T00:25:51;9.80;99.90
12833;DHT22;6483;51.310;4.462;2023-04-01T00:28:19;9.80;99.90
12833;DHT22;6483;51.310;4.462;2023-04-01T00:30:48;9.80;99.90
12833;DHT22;6483;51.310;4.462;2023-04-01T00:33:20;9.80;99.90
12833;DHT22;6483;51.310;4.462;2023-04-01T00:35:47;9.80;99.90
12833;DHT22;6483;51.310;4.462;2023-04-01T00:38:13;9.80;99.90
12833;DHT22;6483;51.310;4.462;2023-04-01T00:40:41;9.80;99.90
12833;DHT22;6483;51.310;4.462;2023-04-01T00:43:30;9.70;99.90
12833;DHT22;6483;51.310;4.462;2023-04-01T00:45:59;9.70;99.90
12833;DHT22;6483;51.310;4.462;2023-04-01T00:48:49;9.70;99.90
12833;DHT22;6483;51.310;4.462;2023-04-01T00:51:20;9.80;99.90
12833;DHT22;6483;51.310;4.462;2023-04-01T00:53:50;9.80;99.90
12833;DHT22;6483;51.310;4.462;2023-04-01T00:56:19;9.80;99.90
12833;DHT22;6483;51.310;4.462;2023-04-01T00:58:50;9.80;99.90
12833;DHT22;6483;51.310;4.462;2023-04-01T01:01:17;9.80;99.90
12833;DHT22;6483;51.310;4.462;2023-04-01T01:03:44;9.80;99.90
12833;DHT22;6483;51.310;4.462;2023-04-01T01:06:17;9.80;99.90
12833;DHT22;6483;51.310;4.462;2023-04-01T01:11:43;9.70;99.90
12833;DHT22;6483;51.310;4.462;2023-04-01T01:20:18;9.70;99.90
12833;DHT22;6483;51.310;4.462;2023-04-01T01:26:04;9.70;99.90
12833;DHT22;6483;51.310;4.462;2023-04-01T01:36:36;9.60;99.90
12833;DHT22;6483;51.310;4.462;2023-04-01T01:39:05;11.00;99.90
12833;DHT22;6483;51.310;4.462;2023-04-01T01:41:34;9.60;99.90
12833;DHT22;6483;51.310;4.462;2023-04-01T01:44:03;9.50;99.90
12833;DHT22;6483;51.310;4.462;2023-04-01T01:46:30;9.50;99.90
12833;DHT22;6483;51.310;4.462;2023-04-01T01:48:57;9.50;99.90
12833;DHT22;6483;51.310;4.462;2023-04-01T01:51:26;9.50;99.90
12833;DHT22;6483;51.310;4.462;2023-04-01T01:53:53;9.50;99.90
12833;DHT22;6483;51.310;4.462;2023-04-01T01:56:20;9.50;99.90
12833;DHT22;6483;51.310;4.462;2023-04-01T01:59:10;9.50;99.90
12833;DHT22;6483;51.310;4.462;2023-04-01T02:01:40;9.50;99.90
12833;DHT22;6483;51.310;4.462;2023-04-01T02:04:07;9.50;99.90
12833;DHT22;6483;51.310;4.462;2023-04-01T02:06:38;9.40;99.90
12833;DHT22;6483;51.310;4.462;2023-04-01T02:09:06;9.50;99.90
12833;DHT22;6483;51.310;4.462;2023-04-01T02:11:41;9.50;99.90
12833;DHT22;6483;51.310;4.462;2023-04-01T02:14:45;9.40;99.90
12833;DHT22;6483;51.310;4.462;2023-04-01T02:17:19;9.50;99.90
12833;DHT22;6483;51.310;4.462;2023-04-01T02:22:29;9.40;99.90
12833;DHT22;6483;51.310;4.462;2023-04-01T02:24:59;9.40;99.90
12833;DHT22;6483;51.310;4.462;2023-04-01T02:27:27;9.40;99.90
12833;DHT22;6483;51.310;4.462;2023-04-01T02:29:53;9.40;99.90
12833;DHT22;6483;51.310;4.462;2023-04-01T02:32:20;9.40;99.90
12833;DHT22;6483;51.310;4.462;2023-04-01T02:34:47;9.40;99.90
12833;DHT22;6483;51.310;4.462;2023-04-01T02:37:14;9.40;99.90
12833;DHT22;6483;51.310;4.462;2023-04-01T02:39:40;9.40;99.90
12833;DHT22;6483;51.310;4.462;2023-04-01T02:42:08;9.40;99.90
12833;DHT22;6483;51.310;4.462;2023-04-01T02:44:33;9.40;99.90
12833;DHT22;6483;51.310;4.462;2023-04-01T02:46:59;9.30;99.90
12833;DHT22;6483;51.310;4.462;2023-04-01T02:49:25;9.40;99.90
12833;DHT22;6483;51.310;4.462;2023-04-01T02:51:51;9.40;99.90
12833;DHT22;6483;51.310;4.462;2023-04-01T02:54:17;9.40;99.90
12833;DHT22;6483;51.310;4.462;2023-04-01T02:56:44;9.40;99.90
12833;DHT22;6483;51.310;4.462;2023-04-01T02:59:11;9.40;99.90
12833;DHT22;6483;51.310;4.462;2023-04-01T03:01:37;9.40;99.90
12833;DHT22;6483;51.310;4.462;2023-04-01T03:04:03;9.40;99.90
12833;DHT22;6483;51.310;4.462;2023-04-01T03:06:29;9.40;99.90
12833;DHT22;6483;51.310;4.462;2023-04-01T03:08:55;9.30;99.90
12833;DHT22;6483;51.310;4.462;2023-04-01T03:11:21;9.30;99.90
12833;DHT22;6483;51.310;4.462;2023-04-01T03:13:46;9.30;99.90
12833;DHT22;6483;51.310;4.462;2023-04-01T03:16:12;9.30;99.90
12833;DHT22;6483;51.310;4.462;2023-04-01T03:18:38;9.30;99.90
12833;DHT22;6483;51.310;4.462;2023-04-01T03:21:15;9.30;99.90
12833;DHT22;6483;51.310;4.462;2023-04-01T03:23:41;9.30;99.90
12833;DHT22;6483;51.310;4.462;2023-04-01T03:26:07;9.30;99.90
12833;DHT22;6483;51.310;4.462;2023-04-01T03:28:33;9.40;99.90
12833;DHT22;6483;51.310;4.462;2023-04-01T03:30:59;9.30;99.90
12833;DHT22;6483;51.310;4.462;2023-04-01T03:33:25;9.30;99.90
12833;DHT22;6483;51.310;4.462;2023-04-01T03:35:50;9.30;99.90
12833;DHT22;6483;51.310;4.462;2023-04-01T03:38:17;9.30;99.90
12833;DHT22;6483;51.310;4.462;2023-04-01T03:40:44;9.30;99.90
12833;DHT22;6483;51.310;4.462;2023-04-01T03:43:10;9.30;99.90
12833;DHT22;6483;51.310;4.462;2023-04-01T03:45:49;9.30;99.90
12833;DHT22;6483;51.310;4.462;2023-04-01T03:48:15;9.30;99.90
12833;DHT22;6483;51.310;4.462;2023-04-01T03:50:41;9.20;99.90
12833;DHT22;6483;51.310;4.462;2023-04-01T03:53:07;9.20;99.90
12833;DHT22;6483;51.310;4.462;2023-04-01T03:55:33;9.20;99.90
12833;DHT22;6483;51.310;4.462;2023-04-01T03:58:00;9.20;99.90
12833;DHT22;6483;51.310;4.462;2023-04-01T04:00:30;9.20;99.90
12833;DHT22;6483;51.310;4.462;2023-04-01T04:02:56;9.20;99.90
12833;DHT22;6483;51.310;4.462;2023-04-01T04:05:23;9.20;99.90
12833;DHT22;6483;51.310;4.462;2023-04-01T04:07:50;9.20;99.90
12833;DHT22;6483;51.310;4.462;2023-04-01T04:10:16;9.20;99.90
12833;DHT22;6483;51.310;4.462;2023-04-01T04:12:42;9.20;99.90
12833;DHT22;6483;51.310;4.462;2023-04-01T04:15:08;9.20;99.90
12833;DHT22;6483;51.310;4.462;2023-04-01T04:17:34;9.20;99.90
12833;DHT22;6483;51.310;4.462;2023-04-01T04:20:00;9.20;99.90
12833;DHT22;6483;51.310;4.462;2023-04-01T04:22:26;9.20;99.90
12833;DHT22;6483;51.310;4.462;2023-04-01T04:24:52;9.20;99.90
12833;DHT22;6483;51.310;4.462;2023-04-01T04:27:17;9.20;99.90
12833;DHT22;6483;51.310;4.462;2023-04-01T04:29:43;9.20;99.90
12833;DHT22;6483;51.310;4.462;2023-04-01T04:32:09;9.20;99.90
12833;DHT22;6483;51.310;4.462;2023-04-01T04:34:42;9.20;99.90
12833;DHT22;6483;51.310;4.462;2023-04-01T04:37:08;9.20;99.90
12833;DHT22;6483;51.310;4.462;2023-04-01T04:39:33;9.20;99.90
12833;DHT22;6483;51.310;4.462;2023-04-01T04:41:59;9.20;99.90
12833;DHT22;6483;51.310;4.462;2023-04-01T04:44:25;9.20;99.90
12833;DHT22;6483;51.310;4.462;2023-04-01T04:46:50;9.20;99.90
12833;DHT22;6483;51.310;4.462;2023-04-01T04:49:16;9.20;99.90
12833;DHT22;6483;51.310;4.462;2023-04-01T04:51:42;9.20;99.90
12833;DHT22;6483;51.310;4.462;2023-04-01T04:54:08;9.10;99.90
12833;DHT22;6483;51.310;4.462;2023-04-01T04:56:34;9.10;99.90
12833;DHT22;6483;51.310;4.462;2023-04-01T04:59:01;9.10;99.90
12833;DHT22;6483;51.310;4.462;2023-04-01T05:01:27;9.10;99.90
12833;DHT22;6483;51.310;4.462;2023-04-01T05:03:53;9.10;99.90
12833;DHT22;6483;51.310;4.462;2023-04-01T05:06:20;9.00;99.90
12833;DHT22;6483;51.310;4.462;2023-04-01T05:08:46;9.10;99.90
12833;DHT22;6483;51.310;4.462;2023-04-01T05:11:16;9.10;99.90
12833;DHT22;6483;51.310;4.462;2023-04-01T05:13:43;9.00;99.90
12833;DHT22;6483;51.310;4.462;2023-04-01T05:16:12;9.10;99.90
12833;DHT22;6483;51.310;4.462;2023-04-01T05:18:38;9.00;99.90
12833;DHT22;6483;51.310;4.462;2023-04-01T05:21:04;9.00;99.90
12833;DHT22;6483;51.310;4.462;2023-04-01T05:23:31;9.00;99.90
12833;DHT22;6483;51.310;4.462;2023-04-01T05:25:56;9.00;99.90
12833;DHT22;6483;51.310;4.462;2023-04-01T05:28:22;9.00;99.90
12833;DHT22;6483;51.310;4.462;2023-04-01T05:30:48;9.00;99.90
12833;DHT22;6483;51.310;4.462;2023-04-01T05:33:14;9.00;99.90
12833;DHT22;6483;51.310;4.462;2023-04-01T05:35:40;9.00;99.90
12833;DHT22;6483;51.310;4.462;2023-04-01T05:38:07;9.00;99.90
12833;DHT22;6483;51.310;4.462;2023-04-01T05:40:33;9.00;99.90
12833;DHT22;6483;51.310;4.462;2023-04-01T05:43:00;9.00;99.90
12833;DHT22;6483;51.310;4.462;2023-04-01T05:45:26;9.00;99.90
12833;DHT22;6483;51.310;4.462;2023-04-01T05:47:52;9.00;99.90
12833;DHT22;6483;51.310;4.462;2023-04-01T05:50:17;9.00;99.90
12833;DHT22;6483;51.310;4.462;2023-04-01T05:52:43;9.00;99.90
12833;DHT22;6483;51.310;4.462;2023-04-01T05:55:10;9.00;99.90
12833;DHT22;6483;51.310;4.462;2023-04-01T05:57:36;9.00;99.90
12833;DHT22;6483;51.310;4.462;2023-04-01T06:00:02;9.00;99.90
12833;DHT22;6483;51.310;4.462;2023-04-01T06:02:28;9.00;99.90
12833;DHT22;6483;51.310;4.462;2023-04-01T06:05:21;9.00;99.90
12833;DHT22;6483;51.310;4.462;2023-04-01T06:07:45;9.00;99.90
12833;DHT22;6483;51.310;4.462;2023-04-01T06:10:17;9.00;99.90
12833;DHT22;6483;51.310;4.462;2023-04-01T06:12:57;9.00;99.90
12833;DHT22;6483;51.310;4.462;2023-04-01T06:15:39;9.00;99.90
12833;DHT22;6483;51.310;4.462;2023-04-01T06:18:27;9.00;99.90
12833;DHT22;6483;51.310;4.462;2023-04-01T06:21:21;9.10;99.90
12833;DHT22;6483;51.310;4.462;2023-04-01T06:29:50;9.10;99.90
12833;DHT22;6483;51.310;4.462;2023-04-01T06:32:33;9.10;99.90
12833;DHT22;6483;51.310;4.462;2023-04-01T06:38:30;9.10;99.90
12833;DHT22;6483;51.310;4.462;2023-04-01T06:55:42;9.20;99.90
12833;DHT22;6483;51.310;4.462;2023-04-01T06:58:45;9.20;99.90
12833;DHT22;6483;51.310;4.462;2023-04-01T07:01:22;9.20;99.90
12833;DHT22;6483;51.310;4.462;2023-04-01T07:09:35;9.20;99.90
12833;DHT22;6483;51.310;4.462;2023-04-01T07:12:31;9.30;99.90
12833;DHT22;6483;51.310;4.462;2023-04-01T07:15:05;9.30;99.90
12833;DHT22;6483;51.310;4.462;2023-04-01T07:17:39;9.30;99.90
12833;DHT22;6483;51.310;4.462;2023-04-01T07:20:22;9.10;99.90
12833;DHT22;6483;51.310;4.462;2023-04-01T07:22:51;9.30;99.90
12833;DHT22;6483;51.310;4.462;2023-04-01T07:25:46;9.40;99.90
12833;DHT22;6483;51.310;4.462;2023-04-01T07:28:14;9.40;99.90
12833;DHT22;6483;51.310;4.462;2023-04-01T07:33:36;9.30;99.90
12833;DHT22;6483;51.310;4.462;2023-04-01T07:36:58;9.30;99.90
12833;DHT22;6483;51.310;4.462;2023-04-01T07:42:33;9.40;99.90
12833;DHT22;6483;51.310;4.462;2023-04-01T07:50:37;9.50;99.90
12833;DHT22;6483;51.310;4.462;2023-04-01T07:53:29;9.50;99.90
12833;DHT22;6483;51.310;4.462;2023-04-01T07:56:10;9.50;99.90
12833;DHT22;6483;51.310;4.462;2023-04-01T07:58:46;9.50;99.90
12833;DHT22;6483;51.310;4.462;2023-04-01T08:01:35;9.60;99.90
12833;DHT22;6483;51.310;4.462;2023-04-01T08:09:59;9.50;99.90
12833;DHT22;6483;51.310;4.462;2023-04-01T08:12:42;9.50;99.90
12833;DHT22;6483;51.310;4.462;2023-04-01T08:15:35;9.50;99.90
12833;DHT22;6483;51.310;4.462;2023-04-01T08:23:48;9.40;99.90
12833;DHT22;6483;51.310;4.462;2023-04-01T08:29:50;9.50;99.90
12833;DHT22;6483;51.310;4.462;2023-04-01T08:32:10;9.50;99.90
12833;DHT22;6483;51.310;4.462;2023-04-01T08:34:40;9.50;99.90
12833;DHT22;6483;51.310;4.462;2023-04-01T08:37:18;9.60;99.90
12833;DHT22;6483;51.310;4.462;2023-04-01T08:39:51;9.60;99.90
12833;DHT22;6483;51.310;4.462;2023-04-01T08:57:29;9.70;99.90
12833;DHT22;6483;51.310;4.462;2023-04-01T09:03:44;9.60;99.90
12833;DHT22;6483;51.310;4.462;2023-04-01T09:06:32;9.50;99.90
12833;DHT22;6483;51.310;4.462;2023-04-01T09:12:26;9.50;99.90
12833;DHT22;6483;51.310;4.462;2023-04-01T09:26:42;9.40;99.90
12833;DHT22;6483;51.310;4.462;2023-04-01T09:40:57;9.60;99.90
12833;DHT22;6483;51.310;4.462;2023-04-01T09:49:58;9.60;99.90
12833;DHT22;6483;51.310;4.462;2023-04-01T09:52:38;9.60;99.90
12833;DHT22;6483;51.310;4.462;2023-04-01T09:55:39;9.60;99.90
12833;DHT22;6483;51.310;4.462;2023-04-01T10:10:01;9.70;99.90
12833;DHT22;6483;51.310;4.462;2023-04-01T10:39:19;9.60;99.90
12833;DHT22;6483;51.310;4.462;2023-04-01T10:53:48;9.60;99.90
12833;DHT22;6483;51.310;4.462;2023-04-01T10:56:40;9.50;99.90
12833;DHT22;6483;51.310;4.462;2023-04-01T11:05:34;9.50;99.90
12833;DHT22;6483;51.310;4.462;2023-04-01T11:08:38;9.60;99.90
12833;DHT22;6483;51.310;4.462;2023-04-01T11:25:29;9.80;99.90
12833;DHT22;6483;51.310;4.462;2023-04-01T11:28:34;9.90;99.90
12833;DHT22;6483;51.310;4.462;2023-04-01T11:31:52;9.80;99.90
12833;DHT22;6483;51.310;4.462;2023-04-01T11:43:24;9.80;99.90
12833;DHT22;6483;51.310;4.462;2023-04-01T11:46:11;9.90;99.90
12833;DHT22;6483;51.310;4.462;2023-04-01T12:09:04;10.00;99.90
12833;DHT22;6483;51.310;4.462;2023-04-01T12:23:20;10.00;99.90
12833;DHT22;6483;51.310;4.462;2023-04-01T12:28:41;10.00;99.90
12833;DHT22;6483;51.310;4.462;2023-04-01T12:31:30;9.90;99.90
12833;DHT22;6483;51.310;4.462;2023-04-01T12:46:58;9.90;99.90
12833;DHT22;6483;51.310;4.462;2023-04-01T12:55:08;10.10;99.90
12833;DHT22;6483;51.310;4.462;2023-04-01T12:57:50;10.10;99.90
12833;DHT22;6483;51.310;4.462;2023-04-01T13:03:37;10.00;99.90
12833;DHT22;6483;51.310;4.462;2023-04-01T13:09:31;9.90;99.90
12833;DHT22;6483;51.310;4.462;2023-04-01T13:39:27;9.90;99.90
12833;DHT22;6483;51.310;4.462;2023-04-01T13:44:33;9.90;99.90
12833;DHT22;6483;51.310;4.462;2023-04-01T13:58:43;9.90;99.90
12833;DHT22;6483;51.310;4.462;2023-04-01T14:01:24;9.90;99.90
12833;DHT22;6483;51.310;4.462;2023-04-01T14:09:24;9.70;99.90
12833;DHT22;6483;51.310;4.462;2023-04-01T14:29:16;9.70;99.90
12833;DHT22;6483;51.310;4.462;2023-04-01T14:31:59;9.80;99.90
12833;DHT22;6483;51.310;4.462;2023-04-01T14:43:20;10.10;99.90
12833;DHT22;6483;51.310;4.462;2023-04-01T14:49:14;9.90;99.90
12833;DHT22;6483;51.310;4.462;2023-04-01T14:51:41;9.80;99.90
12833;DHT22;6483;51.310;4.462;2023-04-01T14:54:32;9.80;99.90
12833;DHT22;6483;51.310;4.462;2023-04-01T14:57:13;9.70;99.90
12833;DHT22;6483;51.310;4.462;2023-04-01T15:08:28;9.60;99.90
12833;DHT22;6483;51.310;4.462;2023-04-01T15:11:16;9.60;99.90
12833;DHT22;6483;51.310;4.462;2023-04-01T15:17:27;9.50;99.90
12833;DHT22;6483;51.310;4.462;2023-04-01T15:23:05;9.60;99.90
12833;DHT22;6483;51.310;4.462;2023-04-01T15:28:42;9.50;99.90
12833;DHT22;6483;51.310;4.462;2023-04-01T15:31:27;9.50;99.90
12833;DHT22;6483;51.310;4.462;2023-04-01T15:36:57;9.50;99.90
12833;DHT22;6483;51.310;4.462;2023-04-01T15:39:42;9.40;99.90
12833;DHT22;6483;51.310;4.462;2023-04-01T15:44:50;9.40;99.90
12833;DHT22;6483;51.310;4.462;2023-04-01T15:47:40;9.40;99.90
12833;DHT22;6483;51.310;4.462;2023-04-01T15:53:27;9.50;99.90
12833;DHT22;6483;51.310;4.462;2023-04-01T15:56:12;9.50;99.90
12833;DHT22;6483;51.310;4.462;2023-04-01T16:01:29;9.60;99.90
12833;DHT22;6483;51.310;4.462;2023-04-01T16:20:42;9.60;99.90
12833;DHT22;6483;51.310;4.462;2023-04-01T16:23:43;9.60;99.90
12833;DHT22;6483;51.310;4.462;2023-04-01T16:29:27;9.60;99.90
12833;DHT22;6483;51.310;4.462;2023-04-01T16:37:59;9.70;99.90
12833;DHT22;6483;51.310;4.462;2023-04-01T16:43:38;9.70;99.90
12833;DHT22;6483;51.310;4.462;2023-04-01T16:49:03;9.70;99.90
12833;DHT22;6483;51.310;4.462;2023-04-01T16:57:37;9.80;99.90
12833;DHT22;6483;51.310;4.462;2023-04-01T17:03:25;9.90;99.90
12833;DHT22;6483;51.310;4.462;2023-04-01T17:06:00;9.80;99.90
12833;DHT22;6483;51.310;4.462;2023-04-01T17:08:56;9.80;99.90
12833;DHT22;6483;51.310;4.462;2023-04-01T17:15:01;9.70;99.90
12833;DHT22;6483;51.310;4.462;2023-04-01T17:17:59;9.50;99.90
12833;DHT22;6483;51.310;4.462;2023-04-01T17:20:42;9.50;99.90
12833;DHT22;6483;51.310;4.462;2023-04-01T17:26:24;9.40;99.90
12833;DHT22;6483;51.310;4.462;2023-04-01T17:37:29;9.40;99.90
12833;DHT22;6483;51.310;4.462;2023-04-01T17:42:51;9.50;99.90
12833;DHT22;6483;51.310;4.462;2023-04-01T17:45:54;9.50;99.90
12833;DHT22;6483;51.310;4.462;2023-04-01T17:48:38;9.40;99.90
12833;DHT22;6483;51.310;4.462;2023-04-01T18:03:18;9.40;99.90
12833;DHT22;6483;51.310;4.462;2023-04-01T18:12:13;9.50;99.90
12833;DHT22;6483;51.310;4.462;2023-04-01T18:14:44;9.50;99.90
12833;DHT22;6483;51.310;4.462;2023-04-01T18:20:27;9.50;99.90
12833;DHT22;6483;51.310;4.462;2023-04-01T18:25:42;9.50;99.90
12833;DHT22;6483;51.310;4.462;2023-04-01T18:28:27;9.50;99.90
12833;DHT22;6483;51.310;4.462;2023-04-01T18:33:57;9.60;99.90
12833;DHT22;6483;51.310;4.462;2023-04-01T18:36:44;9.60;99.90
12833;DHT22;6483;51.310;4.462;2023-04-01T18:39:35;9.60;99.90
12833;DHT22;6483;51.310;4.462;2023-04-01T18:47:48;10.60;99.90
12833;DHT22;6483;51.310;4.462;2023-04-01T18:52:45;9.70;99.90
12833;DHT22;6483;51.310;4.462;2023-04-01T18:57:59;9.70;99.90
12833;DHT22;6483;51.310;4.462;2023-04-01T19:00:39;9.70;99.90
12833;DHT22;6483;51.310;4.462;2023-04-01T19:03:25;9.80;99.90
12833;DHT22;6483;51.310;4.462;2023-04-01T19:05:56;9.80;99.90
12833;DHT22;6483;51.310;4.462;2023-04-01T19:08:30;9.80;99.90
12833;DHT22;6483;51.310;4.462;2023-04-01T19:11:20;9.80;99.90
12833;DHT22;6483;51.310;4.462;2023-04-01T19:14:15;9.80;99.90
12833;DHT22;6483;51.310;4.462;2023-04-01T19:17:00;9.90;99.90
12833;DHT22;6483;51.310;4.462;2023-04-01T19:22:33;9.90;99.90
12833;DHT22;6483;51.310;4.462;2023-04-01T19:31:15;10.00;99.90
12833;DHT22;6483;51.310;4.462;2023-04-01T19:34:17;10.00;99.90
12833;DHT22;6483;51.310;4.462;2023-04-01T19:36:55;10.10;99.90
12833;DHT22;6483;51.310;4.462;2023-04-01T19:39:48;10.00;99.90
12833;DHT22;6483;51.310;4.462;2023-04-01T19:42:41;10.00;99.90
12833;DHT22;6483;51.310;4.462;2023-04-01T19:45:51;10.00;99.90
12833;DHT22;6483;51.310;4.462;2023-04-01T19:48:49;10.00;99.90
12833;DHT22;6483;51.310;4.462;2023-04-01T19:51:27;10.00;99.90
12833;DHT22;6483;51.310;4.462;2023-04-01T19:54:04;10.00;99.90
12833;DHT22;6483;51.310;4.462;2023-04-01T19:56:47;10.00;99.90
12833;DHT22;6483;51.310;4.462;2023-04-01T20:01:59;9.90;99.90
12833;DHT22;6483;51.310;4.462;2023-04-01T20:13:03;9.80;99.90
12833;DHT22;6483;51.310;4.462;2023-04-01T20:15:39;9.90;99.90
12833;DHT22;6483;51.310;4.462;2023-04-01T20:20:39;9.80;99.90
12833;DHT22;6483;51.310;4.462;2023-04-01T20:23:30;9.80;99.90
12833;DHT22;6483;51.310;4.462;2023-04-01T20:26:04;9.80;99.90
12833;DHT22;6483;51.310;4.462;2023-04-01T20:31:43;9.80;99.90
12833;DHT22;6483;51.310;4.462;2023-04-01T20:37:16;9.80;99.90
12833;DHT22;6483;51.310;4.462;2023-04-01T20:40:19;9.80;99.90
12833;DHT22;6483;51.310;4.462;2023-04-01T20:43:16;9.70;99.90
12833;DHT22;6483;51.310;4.462;2023-04-01T20:54:41;9.60;99.90
12833;DHT22;6483;51.310;4.462;2023-04-01T20:57:25;9.60;99.90
12833;DHT22;6483;51.310;4.462;2023-04-01T21:02:42;9.60;99.90
12833;DHT22;6483;51.310;4.462;2023-04-01T21:16:52;9.50;99.90
12833;DHT22;6483;51.310;4.462;2023-04-01T21:27:51;9.50;99.90
12833;DHT22;6483;51.310;4.462;2023-04-01T22:04:56;9.40;99.90
12833;DHT22;6483;51.310;4.462;2023-04-01T22:07:31;9.40;99.90
12833;DHT22;6483;51.310;4.462;2023-04-01T22:27:12;9.10;99.90
12833;DHT22;6483;51.310;4.462;2023-04-01T22:29:50;9.00;99.90
12833;DHT22;6483;51.310;4.462;2023-04-01T22:32:29;9.10;99.90
12833;DHT22;6483;51.310;4.462;2023-04-01T22:38:22;9.00;99.90
12833;DHT22;6483;51.310;4.462;2023-04-01T22:41:24;8.90;99.90
12833;DHT22;6483;51.310;4.462;2023-04-01T22:43:56;8.90;99.90
12833;DHT22;6483;51.310;4.462;2023-04-01T22:46:41;8.90;99.90
12833;DHT22;6483;51.310;4.462;2023-04-01T22:55:22;8.80;99.90
12833;DHT22;6483;51.310;4.462;2023-04-01T22:57:59;8.70;99.90
12833;DHT22;6483;51.310;4.462;2023-04-01T23:00:52;8.70;99.90
12833;DHT22;6483;51.310;4.462;2023-04-01T23:03:25;8.60;99.90
12833;DHT22;6483;51.310;4.462;2023-04-01T23:05:56;8.60;99.90
12833;DHT22;6483;51.310;4.462;2023-04-01T23:11:37;8.50;99.90
12833;DHT22;6483;51.310;4.462;2023-04-01T23:17:15;8.50;99.90
12833;DHT22;6483;51.310;4.462;2023-04-01T23:22:39;8.60;99.90
12833;DHT22;6483;51.310;4.462;2023-04-01T23:30:46;8.50;99.90
12833;DHT22;6483;51.310;4.462;2023-04-01T23:35:58;8.40;99.90
12833;DHT22;6483;51.310;4.462;2023-04-01T23:38:37;8.40;99.90
12833;DHT22;6483;51.310;4.462;2023-04-01T23:41:04;8.40;99.90
12833;DHT22;6483;51.310;4.462;2023-04-01T23:43:33;8.40;99.90
12833;DHT22;6483;51.310;4.462;2023-04-01T23:46:03;8.40;99.90
12833;DHT22;6483;51.310;4.462;2023-04-01T23:48:35;8.40;99.90
12833;DHT22;6483;51.310;4.462;2023-04-01T23:51:02;8.30;99.90
12833;DHT22;6483;51.310;4.462;2023-04-01T23:53:44;8.30;99.90
12833;DHT22;6483;51.310;4.462;2023-04-01T23:56:11;8.20;99.90
12833;DHT22;6483;51.310;4.462;2023-04-01T23:58:50;8.20;99.90
